Disclaimer

Please do not use the information listed here in-flight or in-navigation, as they are not provided to us by the airports but are provided by volunteers, so they might be outdated.

Search


Regions


Airport information page

Radio informations:
Tower (TWR) - 126.25 MHz
PRECISION - 123.3 MHz
Approach (APP) - 120.225 MHz

Airport informations:
Latitude: 49° 09' 57.00" N
Longitude: 016° 07' 29.73" E
Elevation: 1548 feet - 472 meters
Operating hours: 24 hour operations
Operating agency: Military
Timezone: UTC+1(+2DT)
Fuel: N/A

Runway information:
13/31 - 7850 x 147 feet< - >2393 x 45 meters

Recent METARs:
LKNA 210300Z 06007KT 0500 R13/0500U -DZ FG VV001 00/M00 Q1013 RMK RED
LKNA 210400Z 07006KT 0500 R13/0500N -DZ FG VV001 00/M00 Q1014
LKNA 210400Z 07006KT 0500 R13/0500N -DZ FG VV001 00/M00 Q1014 RMK RED

Airport on the map: